Gardner, North Dakota
Current Conditions -  °F | °C
As of 1:53 AM on Thursday 27 Nov 2014 (Local Time) from KFAR Reporting Station
Clear Clear  
Wind Chill: -22°   Ceiling: Unl
Heat Index: -10°   Visibility: 10mi
Dew Point: -17°   Wind: 5mph
Humidity: 71%   Direction: 350°N
Pressure: 30.56"   Gusts: NA
Location:  47.15°N, 96.97°W
Report Text: KFAR 270753Z 35004KT 10SM CLR M23/M27 A3056 RMK AO2 SLP377 I1000 T12331272
Loading
Personal Weather Stations






























Interactive Weather Map New forecast layout! Learn more

10-Day Weather Forecast

Advertisements
Track Severe Weather on mobile